Mount Charleston, Nevada
Current Conditions -  °F | °C
As of 11:56 AM on Friday 28 Nov 2014 (Local Time) from KHND Reporting Station
Clear Clear  
Wind Chill: 64°   Ceiling: Unl
Heat Index: 64°   Visibility: 10mi
Dew Point: 23°   Wind: 6mph
Humidity: 21%   Direction: 20°NNE
Pressure: 30.03"   Gusts: NA
Location:  35.8437°N, 115.134°W
Report Text: KHND 281956Z 02005KT 10SM CLR 18/M05 A3003 RMK AO2 T01771050 SLP167
Loading
Personal Weather Stations






























Interactive Weather Map New forecast layout! Learn more

10-Day Weather Forecast

Advertisements
Track Severe Weather on mobile